createdAt,value
2019-04-04T00:00:38.290Z,84.20
2019-04-04T00:03:07.864Z,84.30
2019-04-04T00:05:37.414Z,83.80
2019-04-04T00:08:07.615Z,83.80
2019-04-04T00:10:36.947Z,83.20
2019-04-04T00:13:06.199Z,83.20
2019-04-04T00:15:38.236Z,83.20
2019-04-04T00:18:09.782Z,83.60
2019-04-04T00:20:42.835Z,83.60
2019-04-04T00:23:13.174Z,83.60
2019-04-04T00:25:43.846Z,84.40
2019-04-04T00:28:32.786Z,84.30
2019-04-04T00:31:02.356Z,83.90
2019-04-04T00:33:31.911Z,84.60
2019-04-04T00:36:02.769Z,83.60
2019-04-04T00:38:32.639Z,82.50
2019-04-04T00:41:01.899Z,82.30
2019-04-04T00:43:39.799Z,82.10
2019-04-04T00:46:29.006Z,82.40
2019-04-04T00:49:06.400Z,81.90
2019-04-04T00:51:51.629Z,82.20
2019-04-04T00:54:23.641Z,82.00
2019-04-04T00:57:09.829Z,82.10
2019-04-04T00:59:39.487Z,83.30
2019-04-04T01:02:09.059Z,83.60
2019-04-04T01:04:38.694Z,83.00
2019-04-04T01:07:08.351Z,82.60
2019-04-04T01:09:37.828Z,82.90
2019-04-04T01:12:07.425Z,83.00
2019-04-04T01:14:36.978Z,82.90
2019-04-04T01:17:06.548Z,84.80
2019-04-04T01:19:36.115Z,85.00
2019-04-04T01:22:05.682Z,84.20
2019-04-04T01:24:35.405Z,85.00
2019-04-04T01:27:06.347Z,84.20
2019-04-04T01:29:36.182Z,87.10
2019-04-04T01:32:05.765Z,85.90
2019-04-04T01:34:35.687Z,85.50
2019-04-04T01:37:05.367Z,86.80
2019-04-04T01:39:34.940Z,85.90
2019-04-04T01:42:05.064Z,87.10
2019-04-04T01:44:35.926Z,87.00
2019-04-04T01:47:05.551Z,87.20
2019-04-04T01:49:35.136Z,86.50
2019-04-04T01:52:04.691Z,86.80
2019-04-04T01:54:34.270Z,86.90
2019-04-04T01:57:03.828Z,86.00
2019-04-04T01:59:33.917Z,86.20
2019-04-04T02:02:03.771Z,86.70
2019-04-04T02:04:33.419Z,86.30
2019-04-04T02:07:02.990Z,86.00
2019-04-04T02:09:34.626Z,86.30
2019-04-04T02:12:03.774Z,86.60
2019-04-04T02:14:33.332Z,86.80
2019-04-04T02:17:02.913Z,86.70
2019-04-04T02:19:32.477Z,87.10
2019-04-04T02:22:02.042Z,86.60
2019-04-04T02:24:32.660Z,85.90
2019-04-04T02:27:02.225Z,84.70
2019-04-04T02:29:31.791Z,84.90
2019-04-04T02:32:02.940Z,85.00
2019-04-04T02:34:32.508Z,85.10
2019-04-04T02:37:02.219Z,86.00
2019-04-04T02:39:32.671Z,85.40
2019-04-04T02:42:02.995Z,85.80
2019-04-04T02:44:33.152Z,85.40
2019-04-04T02:47:03.060Z,84.70
2019-04-04T02:49:32.646Z,84.10
2019-04-04T02:52:02.380Z,83.50
2019-04-04T02:54:32.005Z,82.70
2019-04-04T02:57:01.614Z,83.60
2019-04-04T02:59:31.179Z,83.00
2019-04-04T03:02:04.808Z,82.20
2019-04-04T03:04:32.084Z,83.20
2019-04-04T03:07:01.694Z,82.00
2019-04-04T03:09:31.271Z,81.40
2019-04-04T03:12:00.864Z,82.20
2019-04-04T03:14:30.423Z,80.40
2019-04-04T03:17:00.143Z,82.10
2019-04-04T03:19:29.682Z,81.90
2019-04-04T03:21:59.242Z,81.50
2019-04-04T03:24:28.833Z,81.10
2019-04-04T03:26:58.393Z,80.20
2019-04-04T03:29:27.979Z,78.70
2019-04-04T03:31:57.578Z,77.40
2019-04-04T03:34:27.138Z,76.90
2019-04-04T03:36:56.727Z,77.00
2019-04-04T03:39:26.286Z,77.80
2019-04-04T03:41:55.848Z,78.00
2019-04-04T03:44:25.399Z,78.10
2019-04-04T03:46:55.043Z,78.80
2019-04-04T03:49:24.831Z,79.50
2019-04-04T03:51:54.421Z,79.90
2019-04-04T03:54:25.745Z,80.30
2019-04-04T03:56:55.273Z,80.40
2019-04-04T03:59:24.880Z,80.90
2019-04-04T04:01:54.420Z,80.90
2019-04-04T04:04:26.838Z,81.10
2019-04-04T04:06:55.193Z,82.40
2019-04-04T04:09:26.359Z,82.30
2019-04-04T04:11:56.157Z,83.30
2019-04-04T04:14:25.742Z,83.20
2019-04-04T04:16:55.331Z,82.90
2019-04-04T04:19:30.015Z,82.60
2019-04-04T04:21:56.887Z,82.70
2019-04-04T04:24:29.217Z,82.70
2019-04-04T04:26:57.702Z,84.20
2019-04-04T04:29:29.902Z,84.40
2019-04-04T04:31:58.482Z,84.40
2019-04-04T04:34:32.817Z,83.70
2019-04-04T04:36:59.270Z,82.90
2019-04-04T04:39:28.859Z,82.40
2019-04-04T04:41:58.435Z,81.50
2019-04-04T04:44:28.007Z,80.90
2019-04-04T04:46:57.627Z,80.00
2019-04-04T04:49:27.277Z,79.60
2019-04-04T04:51:56.843Z,79.70
2019-04-04T04:54:26.411Z,77.00
2019-04-04T04:56:56.084Z,75.70
2019-04-04T04:59:25.684Z,74.50
2019-04-04T05:01:55.235Z,72.50
2019-04-04T05:04:27.840Z,71.80
2019-04-04T05:06:55.989Z,69.90
2019-04-04T05:09:25.606Z,68.00
2019-04-04T05:11:55.173Z,66.30
2019-04-04T05:14:24.743Z,64.20
2019-04-04T05:16:54.328Z,62.80
2019-04-04T05:19:23.898Z,60.10
2019-04-04T05:21:53.487Z,59.60
2019-04-04T05:24:23.077Z,59.30
2019-04-04T05:26:52.674Z,58.80
2019-04-04T05:29:22.227Z,58.70
2019-04-04T05:31:51.941Z,59.00
2019-04-04T05:34:21.505Z,58.60
2019-04-04T05:36:51.080Z,57.80
2019-04-04T05:39:20.885Z,56.50
2019-04-04T05:41:50.482Z,52.50
2019-04-04T05:44:20.055Z,52.60
2019-04-04T05:46:51.932Z,52.40
2019-04-04T05:49:20.825Z,49.60
2019-04-04T05:51:50.540Z,48.60
2019-04-04T05:54:20.113Z,49.00
2019-04-04T05:56:49.862Z,49.10
2019-04-04T05:59:19.413Z,49.00
2019-04-04T06:01:49.008Z,49.00
2019-04-04T06:04:19.511Z,50.30
2019-04-04T06:06:51.503Z,50.40
2019-04-04T06:09:21.265Z,51.00
2019-04-04T06:11:52.752Z,52.10
2019-04-04T06:14:34.068Z,52.80
2019-04-04T06:17:05.109Z,52.60
2019-04-04T06:19:34.831Z,53.30
2019-04-04T06:22:04.550Z,53.40
2019-04-04T06:24:34.128Z,53.00
2019-04-04T06:27:03.739Z,51.20
2019-04-04T06:29:33.301Z,50.60
2019-04-04T06:32:02.868Z,50.60
2019-04-04T06:34:32.786Z,50.70
2019-04-04T06:37:02.351Z,50.60
2019-04-04T06:39:33.047Z,50.80
2019-04-04T06:42:03.306Z,50.30
2019-04-04T06:44:33.599Z,49.60
2019-04-04T06:47:03.186Z,50.60
2019-04-04T06:49:33.235Z,51.10
2019-04-04T06:52:04.002Z,51.80
2019-04-04T06:54:33.573Z,52.20
2019-04-04T06:57:03.998Z,52.50
2019-04-04T06:59:34.593Z,52.70
2019-04-04T07:02:05.360Z,52.10
2019-04-04T07:04:36.035Z,51.50
2019-04-04T07:07:06.039Z,48.40
2019-04-04T07:09:37.263Z,48.10
2019-04-04T07:12:20.293Z,46.10
2019-04-04T07:14:45.723Z,45.40
2019-04-04T07:17:10.578Z,44.10
2019-04-04T07:19:40.090Z,44.80
2019-04-04T07:22:09.663Z,44.70
2019-04-04T07:24:39.343Z,45.20
2019-04-04T07:27:08.962Z,46.30
2019-04-04T07:29:38.540Z,46.10
2019-04-04T07:32:09.549Z,45.20
2019-04-04T07:34:39.334Z,46.90
2019-04-04T07:37:08.922Z,47.00
2019-04-04T07:39:38.569Z,46.90
2019-04-04T07:42:08.142Z,46.60
2019-04-04T07:44:37.736Z,48.10
2019-04-04T07:47:07.407Z,48.70
2019-04-04T07:49:40.005Z,48.40
2019-04-04T07:52:08.203Z,47.50
2019-04-04T07:54:58.139Z,48.10
2019-04-04T07:57:30.097Z,49.00
2019-04-04T07:59:59.015Z,48.60
2019-04-04T08:02:28.623Z,48.80
2019-04-04T08:04:58.196Z,48.40
2019-04-04T08:07:28.810Z,48.20
2019-04-04T08:09:58.743Z,48.10
2019-04-04T08:12:28.418Z,47.80
2019-04-04T08:14:58.015Z,47.60
2019-04-04T08:17:27.606Z,45.90
2019-04-04T08:19:59.918Z,44.70
2019-04-04T08:22:28.701Z,44.20
2019-04-04T08:24:58.286Z,43.80
2019-04-04T08:27:27.846Z,42.20
2019-04-04T08:29:57.608Z,41.40
2019-04-04T08:32:27.171Z,40.20
2019-04-04T08:34:56.757Z,38.60
2019-04-04T08:37:26.332Z,37.80
2019-04-04T08:39:55.933Z,36.30
2019-04-04T08:42:26.666Z,33.40
2019-04-04T08:44:56.218Z,32.90
2019-04-04T08:47:25.802Z,30.40
2019-04-04T08:49:55.374Z,32.30
2019-04-04T08:52:24.957Z,33.40
2019-04-04T08:54:54.665Z,35.60
2019-04-04T08:57:24.389Z,37.30
2019-04-04T08:59:53.952Z,35.80
2019-04-04T09:02:23.537Z,35.70
2019-04-04T09:04:53.095Z,34.90
2019-04-04T09:07:23.646Z,34.00
2019-04-04T09:09:53.297Z,33.80
2019-04-04T09:12:23.011Z,33.10
2019-04-04T09:14:52.642Z,33.50
2019-04-04T09:17:22.198Z,34.60
2019-04-04T09:19:51.806Z,36.30
2019-04-04T09:22:23.995Z,36.20
2019-04-04T09:24:53.650Z,35.80
2019-04-04T09:27:23.226Z,33.10
2019-04-04T09:29:52.779Z,31.80
2019-04-04T09:32:22.407Z,33.10
2019-04-04T09:34:51.982Z,32.20
2019-04-04T09:37:21.578Z,29.80
2019-04-04T09:39:51.166Z,26.80
2019-04-04T09:42:20.730Z,24.50
2019-04-04T09:44:50.365Z,24.50
2019-04-04T09:47:19.917Z,23.80
2019-04-04T09:49:49.491Z,23.50
2019-04-04T09:52:19.080Z,25.20
2019-04-04T09:54:48.650Z,27.30
2019-04-04T09:57:18.317Z,26.80
2019-04-04T09:59:47.906Z,25.20
2019-04-04T10:02:17.491Z,24.10
2019-04-04T10:04:47.092Z,23.10
2019-04-04T10:07:17.653Z,23.70
2019-04-04T10:09:47.257Z,23.10
2019-04-04T10:12:17.827Z,22.00
2019-04-04T10:14:47.402Z,21.60
2019-04-04T10:17:16.986Z,21.60
2019-04-04T10:19:46.558Z,22.50
2019-04-04T10:22:16.203Z,23.40
2019-04-04T10:24:45.755Z,21.90
2019-04-04T10:27:15.326Z,21.80
2019-04-04T10:29:44.909Z,20.80
2019-04-04T10:32:14.463Z,21.30
2019-04-04T10:34:45.181Z,22.20
2019-04-04T10:37:14.757Z,22.90
2019-04-04T10:39:44.346Z,22.90
2019-04-04T10:42:13.923Z,23.90
2019-04-04T10:44:43.493Z,26.00
2019-04-04T10:47:13.360Z,24.30
2019-04-04T10:50:02.342Z,24.70
2019-04-04T10:52:32.240Z,24.90
2019-04-04T10:55:01.886Z,26.20
2019-04-04T10:57:32.709Z,27.00
2019-04-04T11:00:03.306Z,26.60
2019-04-04T11:02:34.371Z,27.30
2019-04-04T11:05:04.079Z,28.90
2019-04-04T11:07:34.306Z,28.00
2019-04-04T11:10:05.232Z,28.30
2019-04-04T11:12:34.796Z,29.00
2019-04-04T11:15:05.992Z,28.20
2019-04-04T11:17:35.537Z,27.50
2019-04-04T11:20:06.229Z,27.50
2019-04-04T11:22:35.919Z,26.70
2019-04-04T11:25:05.501Z,28.00
2019-04-04T11:27:35.462Z,28.40
2019-04-04T11:30:08.041Z,27.90
2019-04-04T11:32:38.050Z,27.10
2019-04-04T11:35:07.611Z,26.20
2019-04-04T11:37:37.182Z,24.90
2019-04-04T11:40:07.761Z,24.90
2019-04-04T11:42:37.311Z,23.90
2019-04-04T11:45:06.934Z,22.80
2019-04-04T11:47:36.788Z,22.80
2019-04-04T11:50:07.511Z,22.50
2019-04-04T11:52:38.102Z,24.60
2019-04-04T11:55:07.694Z,24.20
2019-04-04T11:57:37.266Z,26.40
2019-04-04T12:00:07.823Z,26.50
2019-04-04T12:02:37.424Z,26.70
2019-04-04T12:05:07.759Z,25.70
2019-04-04T12:07:38.474Z,26.60
2019-04-04T12:10:08.550Z,27.60
2019-04-04T12:12:38.173Z,27.70
2019-04-04T12:15:08.865Z,26.60
2019-04-04T12:17:38.770Z,27.40
2019-04-04T12:20:08.368Z,27.10
2019-04-04T12:22:37.950Z,26.20
2019-04-04T12:25:07.590Z,27.10
2019-04-04T12:27:37.201Z,26.80
2019-04-04T12:30:07.753Z,26.70
2019-04-04T12:32:37.373Z,25.90
2019-04-04T12:35:06.959Z,26.00
2019-04-04T12:37:37.511Z,25.30
2019-04-04T12:40:20.028Z,25.90
2019-04-04T12:42:39.111Z,25.90
2019-04-04T12:45:09.652Z,26.00
2019-04-04T12:47:39.209Z,26.30
2019-04-04T12:50:09.496Z,27.90
2019-04-04T12:52:39.063Z,27.70
2019-04-04T12:55:08.646Z,27.70
2019-04-04T12:57:38.306Z,29.20
2019-04-04T13:00:08.876Z,28.20
2019-04-04T13:02:38.597Z,29.00
2019-04-04T13:05:08.677Z,29.50
2019-04-04T13:07:38.261Z,29.70
2019-04-04T13:10:11.730Z,29.80
2019-04-04T13:12:39.438Z,29.60
2019-04-04T13:15:09.151Z,30.40
2019-04-04T13:17:38.711Z,31.20
2019-04-04T13:20:08.295Z,30.50
2019-04-04T13:22:37.864Z,30.20
2019-04-04T13:25:08.758Z,30.90
2019-04-04T13:27:38.370Z,31.00
2019-04-04T13:30:09.997Z,30.90
2019-04-04T13:32:39.729Z,31.30
2019-04-04T13:35:09.570Z,32.20
2019-04-04T13:37:39.158Z,31.60
2019-04-04T13:40:08.731Z,31.80
2019-04-04T13:42:38.323Z,32.10
2019-04-04T13:45:07.942Z,32.60
2019-04-04T13:47:39.390Z,32.40
2019-04-04T13:50:08.715Z,32.90
2019-04-04T13:52:38.290Z,32.60
2019-04-04T13:55:07.882Z,32.60
2019-04-04T13:57:39.511Z,32.70
2019-04-04T14:00:09.243Z,32.80
2019-04-04T14:02:38.882Z,33.20
2019-04-04T14:05:10.019Z,33.30
2019-04-04T14:07:39.998Z,34.10
2019-04-04T14:10:09.572Z,33.70
2019-04-04T14:12:39.163Z,33.80
2019-04-04T14:15:09.848Z,34.20
2019-04-04T14:17:39.430Z,34.00
2019-04-04T14:20:09.551Z,34.10
2019-04-04T14:22:39.127Z,33.70
2019-04-04T14:25:08.714Z,34.80
2019-04-04T14:27:38.389Z,34.20
2019-04-04T14:30:07.958Z,34.60
2019-04-04T14:32:37.527Z,34.40
2019-04-04T14:35:07.915Z,34.80
2019-04-04T14:37:37.533Z,35.20
2019-04-04T14:40:07.219Z,35.30
2019-04-04T14:42:36.825Z,34.20
2019-04-04T14:45:06.671Z,35.00
2019-04-04T14:47:37.380Z,35.30
2019-04-04T14:50:07.354Z,34.10
2019-04-04T14:52:39.406Z,34.40
2019-04-04T14:55:08.140Z,33.60
2019-04-04T14:57:38.026Z,33.20
2019-04-04T15:00:10.780Z,32.40
2019-04-04T15:02:40.353Z,33.50
2019-04-04T15:05:10.080Z,32.40
2019-04-04T15:07:39.660Z,32.30
2019-04-04T15:10:09.246Z,32.90
2019-04-04T15:12:39.659Z,32.20
2019-04-04T15:15:09.226Z,30.80
2019-04-04T15:17:38.868Z,31.10
2019-04-04T15:20:08.449Z,30.00
2019-04-04T15:22:38.014Z,29.90
2019-04-04T15:25:07.678Z,30.80
2019-04-04T15:27:37.258Z,30.60
2019-04-04T15:30:07.466Z,30.70
2019-04-04T15:32:37.026Z,30.20
2019-04-04T15:35:06.590Z,30.50
2019-04-04T15:37:36.192Z,31.20
2019-04-04T15:40:06.757Z,31.70
2019-04-04T15:42:36.349Z,33.50
2019-04-04T15:45:06.742Z,34.10
2019-04-04T15:47:36.295Z,34.80
2019-04-04T15:50:07.194Z,35.30
2019-04-04T15:52:37.134Z,35.60
2019-04-04T15:55:06.737Z,35.70
2019-04-04T15:57:36.887Z,35.60
2019-04-04T16:00:07.391Z,35.10
2019-04-04T16:02:36.956Z,35.70
2019-04-04T16:05:07.259Z,35.90
2019-04-04T16:07:36.825Z,35.70
2019-04-04T16:10:06.702Z,36.30
2019-04-04T16:12:36.331Z,35.50
2019-04-04T16:15:07.102Z,36.10
2019-04-04T16:17:36.673Z,35.60
2019-04-04T16:20:09.019Z,36.20
2019-04-04T16:22:38.574Z,37.00
2019-04-04T16:25:08.351Z,37.00
2019-04-04T16:27:37.931Z,37.40
2019-04-04T16:30:08.612Z,37.80
2019-04-04T16:32:38.179Z,38.10
2019-04-04T16:35:07.752Z,38.60
2019-04-04T16:37:37.342Z,38.00
2019-04-04T16:40:09.125Z,38.60
2019-04-04T16:42:39.176Z,39.30
2019-04-04T16:45:09.051Z,39.50
2019-04-04T16:47:38.638Z,39.60
2019-04-04T16:50:10.166Z,40.70
2019-04-04T16:52:39.783Z,40.40
2019-04-04T16:55:09.348Z,40.50
2019-04-04T16:57:38.914Z,40.50
2019-04-04T17:00:13.097Z,41.40
2019-04-04T17:02:42.642Z,41.60
2019-04-04T17:05:12.219Z,41.50
2019-04-04T17:07:41.980Z,42.30
2019-04-04T17:10:12.286Z,42.50
2019-04-04T17:12:41.889Z,42.50
2019-04-04T17:15:11.436Z,43.60
2019-04-04T17:17:41.036Z,43.30
2019-04-04T17:20:10.629Z,43.80
2019-04-04T17:22:40.216Z,43.90
2019-04-04T17:25:10.211Z,44.30
2019-04-04T17:27:39.769Z,45.40
2019-04-04T17:30:09.412Z,45.90
2019-04-04T17:32:38.951Z,46.00
2019-04-04T17:35:08.710Z,46.50
2019-04-04T17:37:38.406Z,47.50
2019-04-04T17:40:08.404Z,47.40
2019-04-04T17:42:38.505Z,48.10
2019-04-04T17:45:08.163Z,48.30
2019-04-04T17:47:38.849Z,48.90
2019-04-04T17:50:09.692Z,49.10
2019-04-04T17:52:39.287Z,49.60
2019-04-04T17:55:08.862Z,49.50
2019-04-04T17:57:38.520Z,48.40
2019-04-04T18:00:08.409Z,48.30
2019-04-04T18:02:39.218Z,49.40
2019-04-04T18:05:10.462Z,50.30
2019-04-04T18:07:40.090Z,50.60
2019-04-04T18:10:10.566Z,50.80
2019-04-04T18:12:40.953Z,50.80
2019-04-04T18:15:10.935Z,51.00
2019-04-04T18:17:40.521Z,51.30
2019-04-04T18:20:10.151Z,51.90
2019-04-04T18:22:39.725Z,53.10
2019-04-04T18:25:09.331Z,53.80
2019-04-04T18:27:38.913Z,54.70
2019-04-04T18:30:10.967Z,55.90
2019-04-04T18:32:40.863Z,56.00
2019-04-04T18:35:10.664Z,56.20
2019-04-04T18:37:40.347Z,56.70
2019-04-04T18:40:09.916Z,56.50
2019-04-04T18:42:52.122Z,57.10
2019-04-04T18:45:10.727Z,57.40
2019-04-04T18:47:40.291Z,57.00
2019-04-04T18:50:09.939Z,56.40
2019-04-04T18:52:39.547Z,56.10
2019-04-04T18:55:19.116Z,55.80
2019-04-04T18:57:40.741Z,55.70
2019-04-04T19:00:11.886Z,55.20
2019-04-04T19:02:41.691Z,55.60
2019-04-04T19:05:11.287Z,56.20
2019-04-04T19:07:42.150Z,56.70
2019-04-04T19:10:11.697Z,57.00
2019-04-04T19:12:42.706Z,56.80
2019-04-04T19:15:12.292Z,56.80
2019-04-04T19:17:41.870Z,57.10
2019-04-04T19:20:11.803Z,58.10
2019-04-04T19:22:41.752Z,57.80
2019-04-04T19:25:13.740Z,57.80
2019-04-04T19:27:43.235Z,57.70
2019-04-04T19:30:14.527Z,57.90
2019-04-04T19:32:44.108Z,58.10
2019-04-04T19:38:09.477Z,58.20
2019-04-04T19:40:39.235Z,59.40
2019-04-04T19:43:17.850Z,59.80
2019-04-04T19:45:40.053Z,59.80
2019-04-04T19:48:09.626Z,60.20
2019-04-04T19:50:39.440Z,60.40
2019-04-04T19:53:09.227Z,61.40
2019-04-04T19:55:38.851Z,62.00
2019-04-04T19:58:08.467Z,62.40
2019-04-04T20:00:38.028Z,62.50
2019-04-04T20:03:07.684Z,62.60
2019-04-04T20:05:37.269Z,62.90
2019-04-04T20:08:07.946Z,62.90
2019-04-04T20:10:37.555Z,62.90
2019-04-04T20:13:07.114Z,63.00
2019-04-04T20:15:36.709Z,62.90
2019-04-04T20:18:06.276Z,62.80
2019-04-04T20:20:35.827Z,64.30
2019-04-04T20:23:05.427Z,65.20
2019-04-04T20:25:34.991Z,66.00
2019-04-04T20:28:04.586Z,66.40
2019-04-04T20:30:38.627Z,66.90
2019-04-04T20:33:09.064Z,67.10
2019-04-04T20:35:38.807Z,68.30
2019-04-04T20:38:08.363Z,68.40
2019-04-04T20:40:38.023Z,68.90
2019-04-04T20:43:07.601Z,69.50
2019-04-04T20:45:37.188Z,70.00
2019-04-04T20:48:06.786Z,71.10
2019-04-04T20:50:36.365Z,71.40
2019-04-04T20:53:05.942Z,71.80
2019-04-04T20:55:35.517Z,72.30
2019-04-04T20:58:05.267Z,73.70
2019-04-04T21:00:34.886Z,74.20
2019-04-04T21:03:04.450Z,73.90
2019-04-04T21:05:35.121Z,74.10
2019-04-04T21:08:04.707Z,73.70
2019-04-04T21:10:34.391Z,74.20
2019-04-04T21:13:04.024Z,74.30
2019-04-04T21:15:33.587Z,74.40
2019-04-04T21:18:03.237Z,74.30
2019-04-04T21:20:32.847Z,75.90
2019-04-04T21:23:02.383Z,74.80
2019-04-04T21:25:31.989Z,75.10
2019-04-04T21:28:01.707Z,74.50
2019-04-04T21:30:31.277Z,75.20
2019-04-04T21:33:00.862Z,74.10
2019-04-04T21:35:30.423Z,73.50
2019-04-04T21:38:00.030Z,74.40
2019-04-04T21:40:29.602Z,74.00
2019-04-04T21:42:59.166Z,73.70
2019-04-04T21:45:28.758Z,73.70
2019-04-04T21:47:58.337Z,74.50
2019-04-04T21:50:27.927Z,74.50
2019-04-04T21:52:57.508Z,74.00
2019-04-04T21:55:27.132Z,74.70
2019-04-04T21:57:56.692Z,74.60
2019-04-04T22:00:27.874Z,75.20
2019-04-04T22:02:58.991Z,75.30
2019-04-04T22:05:28.618Z,75.90
2019-04-04T22:07:58.172Z,75.40
2019-04-04T22:10:27.757Z,76.40
2019-04-04T22:12:57.345Z,75.90
2019-04-04T22:15:26.899Z,75.30
2019-04-04T22:17:56.515Z,75.70
2019-04-04T22:20:26.058Z,75.10
2019-04-04T22:22:55.630Z,75.30
2019-04-04T22:25:25.217Z,75.10
2019-04-04T22:27:54.806Z,75.60
2019-04-04T22:30:24.403Z,75.10
2019-04-04T22:32:53.979Z,75.10
2019-04-04T22:35:23.558Z,76.40
2019-04-04T22:37:53.127Z,75.90
2019-04-04T22:40:22.713Z,76.60
2019-04-04T22:42:52.354Z,76.30
2019-04-04T22:45:21.910Z,76.70
2019-04-04T22:47:51.570Z,77.00
2019-04-04T22:50:21.152Z,76.10
2019-04-04T22:52:50.737Z,75.90
2019-04-04T22:55:20.348Z,75.60
2019-04-04T22:57:49.898Z,75.60
2019-04-04T23:00:19.503Z,75.60
2019-04-04T23:02:49.213Z,75.70
2019-04-04T23:05:18.777Z,76.10
2019-04-04T23:07:48.394Z,75.80
2019-04-04T23:10:17.957Z,76.30
2019-04-04T23:12:48.890Z,77.00
2019-04-04T23:15:18.470Z,77.30
2019-04-04T23:17:48.030Z,77.50
2019-04-04T23:20:18.449Z,78.30
2019-04-04T23:22:53.101Z,78.70
2019-04-04T23:25:19.205Z,79.60
2019-04-04T23:27:48.794Z,79.70
2019-04-04T23:30:18.377Z,78.60
2019-04-04T23:32:47.983Z,78.90
2019-04-04T23:35:17.547Z,79.60
2019-04-04T23:37:47.114Z,79.20
2019-04-04T23:40:16.696Z,78.10
2019-04-04T23:42:46.253Z,78.20
2019-04-04T23:45:15.907Z,78.20
2019-04-04T23:47:45.465Z,78.60
2019-04-04T23:50:15.022Z,78.80
2019-04-04T23:52:44.601Z,79.00
2019-04-04T23:55:14.172Z,79.40
2019-04-04T23:57:44.644Z,80.00
